createdAt,value
2023-03-13T00:00:02.694Z,27.70
2023-03-13T00:02:35.298Z,24.17
2023-03-13T00:05:05.272Z,20.92
2023-03-13T00:07:35.182Z,20.90
2023-03-13T00:10:05.046Z,25.02
2023-03-13T00:12:35.186Z,23.92
2023-03-13T00:15:05.058Z,24.50
2023-03-13T00:17:37.562Z,28.90
2023-03-13T00:20:09.271Z,27.92
2023-03-13T00:22:39.159Z,24.17
2023-03-13T00:25:10.235Z,23.55
2023-03-13T00:27:40.123Z,22.33
2023-03-13T00:30:12.451Z,20.45
2023-03-13T00:32:48.802Z,20.80
2023-03-13T00:35:19.527Z,20.10
2023-03-13T00:37:49.474Z,22.60
2023-03-13T00:40:20.326Z,28.10
2023-03-13T00:42:50.172Z,22.80
2023-03-13T00:45:20.234Z,28.90
2023-03-13T00:47:52.803Z,21.33
2023-03-13T00:50:22.664Z,25.08
2023-03-13T00:52:52.546Z,23.05
2023-03-13T00:55:22.456Z,25.77
2023-03-13T00:57:52.303Z,25.55
2023-03-13T01:00:24.146Z,22.45
2023-03-13T01:02:56.858Z,26.23
2023-03-13T01:05:26.892Z,22.33
2023-03-13T01:07:56.761Z,24.48
2023-03-13T01:10:26.645Z,24.80
2023-03-13T01:12:56.541Z,21.52
2023-03-13T01:15:26.710Z,25.55
2023-03-13T01:17:59.167Z,26.98
2023-03-13T01:20:29.000Z,31.92
2023-03-13T01:22:58.894Z,27.13
2023-03-13T01:25:28.796Z,38.15
2023-03-13T01:27:58.666Z,27.63
2023-03-13T01:30:28.565Z,33.15
2023-03-13T01:33:02.240Z,32.03
2023-03-13T01:35:32.170Z,32.28
2023-03-13T01:38:02.061Z,29.95
2023-03-13T01:40:31.938Z,27.00
2023-03-13T01:43:04.201Z,24.08
2023-03-13T01:46:05.471Z,22.45
2023-03-13T01:48:46.140Z,26.80
2023-03-13T01:51:24.374Z,24.58
2023-03-13T01:54:02.107Z,25.02
2023-03-13T01:56:39.830Z,26.50
2023-03-13T01:59:13.354Z,25.13
2023-03-13T02:01:45.331Z,22.17
2023-03-13T02:04:20.860Z,26.00
2023-03-13T02:06:55.053Z,23.83
2023-03-13T02:09:29.805Z,23.08
2023-03-13T02:14:36.833Z,26.48
2023-03-13T02:17:08.427Z,21.48
2023-03-13T02:19:47.329Z,22.50
2023-03-13T02:22:27.281Z,23.95
2023-03-13T02:25:04.963Z,26.77
2023-03-13T02:27:37.438Z,21.13
2023-03-13T02:30:09.442Z,22.25
2023-03-13T02:32:40.430Z,22.17
2023-03-13T02:35:13.788Z,23.80
2023-03-13T02:37:45.915Z,21.27
2023-03-13T02:40:20.447Z,25.33
2023-03-13T02:42:54.470Z,24.70
2023-03-13T02:45:24.621Z,24.48
2023-03-13T02:47:54.499Z,19.60
2023-03-13T02:50:25.335Z,20.30
2023-03-13T02:53:00.957Z,27.92
2023-03-13T02:55:36.220Z,23.05
2023-03-13T02:58:08.760Z,17.42
2023-03-13T03:00:38.708Z,22.08
2023-03-13T03:03:08.623Z,21.55
2023-03-13T03:05:38.491Z,18.08
2023-03-13T03:08:08.621Z,22.48
2023-03-13T03:10:39.430Z,19.10
2023-03-13T03:13:11.892Z,20.80
2023-03-13T03:15:41.773Z,22.52
2023-03-13T03:18:11.653Z,23.92
2023-03-13T03:20:41.502Z,15.73
2023-03-13T03:23:11.391Z,19.55
2023-03-13T03:25:41.275Z,22.98
2023-03-13T03:28:13.757Z,16.58
2023-03-13T03:30:43.617Z,13.88
2023-03-13T03:33:13.510Z,18.13
2023-03-13T03:35:43.494Z,20.30
2023-03-13T03:38:13.514Z,16.33
2023-03-13T03:40:43.416Z,15.98
2023-03-13T03:43:15.862Z,18.92
2023-03-13T03:45:45.775Z,22.75
2023-03-13T03:48:15.748Z,16.08
2023-03-13T03:50:45.986Z,17.25
2023-03-13T03:53:15.876Z,15.45
2023-03-13T03:55:45.928Z,17.27
2023-03-13T03:58:18.397Z,21.50
2023-03-13T04:00:49.603Z,17.95
2023-03-13T04:03:20.070Z,19.23
2023-03-13T04:05:49.967Z,16.30
2023-03-13T04:08:20.142Z,19.13
2023-03-13T04:10:50.088Z,17.13
2023-03-13T04:13:22.590Z,19.25
2023-03-13T04:15:52.554Z,16.88
2023-03-13T04:18:22.456Z,18.60
2023-03-13T04:20:52.352Z,14.82
2023-03-13T04:23:22.213Z,16.17
2023-03-13T04:25:52.086Z,15.60
2023-03-13T04:28:24.526Z,19.88
2023-03-13T04:30:57.489Z,13.65
2023-03-13T04:33:27.650Z,15.38
2023-03-13T04:35:57.558Z,21.17
2023-03-13T04:38:27.535Z,20.60
2023-03-13T04:40:57.462Z,17.85
2023-03-13T04:43:29.947Z,20.30
2023-03-13T04:45:59.851Z,20.50
2023-03-13T04:48:29.785Z,21.73
2023-03-13T04:50:59.658Z,24.65
2023-03-13T04:53:29.535Z,24.05
2023-03-13T04:55:59.406Z,16.40
2023-03-13T04:58:32.019Z,21.83
2023-03-13T05:01:01.958Z,16.83
2023-03-13T05:03:31.853Z,21.83
2023-03-13T05:06:01.770Z,23.98
2023-03-13T05:08:31.671Z,16.17
2023-03-13T05:11:01.560Z,19.65
2023-03-13T05:13:34.425Z,17.42
2023-03-13T05:16:04.533Z,20.98
2023-03-13T05:18:34.734Z,24.63
2023-03-13T05:21:06.018Z,26.33
2023-03-13T05:23:36.004Z,17.67
2023-03-13T05:26:06.568Z,19.65
2023-03-13T05:28:39.146Z,17.45
2023-03-13T05:31:09.077Z,19.73
2023-03-13T05:33:38.957Z,17.48
2023-03-13T05:36:10.210Z,21.90
2023-03-13T05:38:40.179Z,20.95
2023-03-13T05:41:10.190Z,21.73
2023-03-13T05:43:42.658Z,16.02
2023-03-13T05:46:12.637Z,21.10
2023-03-13T05:48:42.547Z,22.10
2023-03-13T05:51:12.431Z,20.02
2023-03-13T05:53:42.310Z,21.63
2023-03-13T05:56:12.179Z,19.23
2023-03-13T05:58:44.643Z,17.05
2023-03-13T06:01:16.618Z,21.15
2023-03-13T06:03:46.574Z,21.67
2023-03-13T06:06:16.520Z,20.40
2023-03-13T06:08:46.399Z,22.70
2023-03-13T06:11:16.572Z,16.08
2023-03-13T06:13:49.125Z,18.65
2023-03-13T06:16:19.043Z,20.52
2023-03-13T06:18:49.239Z,25.20
2023-03-13T06:21:19.117Z,16.05
2023-03-13T06:23:49.206Z,21.33
2023-03-13T06:26:19.158Z,24.48
2023-03-13T06:28:51.980Z,17.52
2023-03-13T06:31:21.968Z,24.02
2023-03-13T06:33:55.852Z,24.27
2023-03-13T06:36:26.804Z,21.93
2023-03-13T06:38:56.741Z,26.58
2023-03-13T06:41:27.819Z,22.77
2023-03-13T06:44:00.667Z,19.25
2023-03-13T06:46:31.418Z,19.75
2023-03-13T06:49:04.715Z,22.67
2023-03-13T06:51:35.307Z,21.25
2023-03-13T06:54:05.628Z,23.05
2023-03-13T06:56:35.648Z,23.55
2023-03-13T06:59:08.118Z,16.23
2023-03-13T07:01:38.044Z,26.38
2023-03-13T07:04:07.996Z,22.45
2023-03-13T07:06:37.918Z,30.80
2023-03-13T07:09:07.916Z,22.80
2023-03-13T07:11:37.773Z,23.15
2023-03-13T07:14:16.892Z,24.48
2023-03-13T07:16:48.063Z,24.30
2023-03-13T07:19:18.921Z,26.15
2023-03-13T07:21:49.801Z,27.48
2023-03-13T07:24:19.802Z,26.95
2023-03-13T07:27:04.137Z,25.67
2023-03-13T07:29:38.785Z,28.95
2023-03-13T07:32:09.951Z,25.65
2023-03-13T07:34:44.787Z,18.25
2023-03-13T07:37:15.151Z,29.17
2023-03-13T07:39:45.803Z,22.13
2023-03-13T07:42:16.036Z,21.90
2023-03-13T07:44:48.492Z,23.20
2023-03-13T07:47:18.375Z,24.20
2023-03-13T07:49:48.260Z,20.15
2023-03-13T07:52:18.158Z,19.95
2023-03-13T07:54:48.055Z,22.75
2023-03-13T07:57:17.950Z,19.80
2023-03-13T07:59:50.386Z,23.70
2023-03-13T08:02:20.370Z,27.85
2023-03-13T08:04:50.556Z,23.80
2023-03-13T08:07:20.491Z,19.52
2023-03-13T08:09:50.523Z,27.70
2023-03-13T08:12:22.319Z,19.67
2023-03-13T08:14:54.782Z,24.08
2023-03-13T08:17:24.666Z,17.10
2023-03-13T08:19:54.517Z,26.70
2023-03-13T08:22:24.564Z,30.17
2023-03-13T08:24:54.423Z,21.95
2023-03-13T08:27:24.321Z,21.58
2023-03-13T08:29:56.758Z,19.90
2023-03-13T08:32:26.844Z,19.40
2023-03-13T08:34:56.735Z,24.00
2023-03-13T08:37:26.736Z,23.50
2023-03-13T08:39:56.916Z,10.90
2023-03-13T08:42:27.058Z,15.93
2023-03-13T08:44:59.490Z,25.17
2023-03-13T08:47:29.425Z,15.13
2023-03-13T08:49:59.298Z,17.20
2023-03-13T08:52:29.541Z,14.82
2023-03-13T08:54:59.411Z,19.95
2023-03-13T08:57:29.306Z,15.95
2023-03-13T09:00:01.734Z,16.50
2023-03-13T09:02:31.627Z,12.05
2023-03-13T09:05:01.543Z,16.25
2023-03-13T09:07:31.576Z,16.67
2023-03-13T09:10:01.428Z,18.20
2023-03-13T09:12:32.909Z,13.10
2023-03-13T09:15:05.453Z,16.42
2023-03-13T09:17:35.359Z,15.90
2023-03-13T09:20:05.322Z,14.95
2023-03-13T09:22:35.434Z,13.52
2023-03-13T09:25:05.682Z,12.57
2023-03-13T09:27:35.784Z,19.20
2023-03-13T09:30:10.535Z,11.85
2023-03-13T09:35:11.776Z,16.48
2023-03-13T09:37:41.895Z,12.30
2023-03-13T09:40:17.857Z,18.38
2023-03-13T09:42:52.201Z,12.73
2023-03-13T09:45:34.563Z,17.35
2023-03-13T09:48:08.797Z,13.60
2023-03-13T09:50:45.788Z,14.45
2023-03-13T09:53:21.145Z,11.48
2023-03-13T09:55:51.648Z,19.13
2023-03-13T09:58:25.060Z,10.77
2023-03-13T10:01:01.085Z,16.88
2023-03-13T10:03:34.723Z,14.52
2023-03-13T10:06:14.314Z,17.20
2023-03-13T10:08:44.447Z,11.75
2023-03-13T10:11:24.501Z,15.18
2023-03-13T10:13:59.635Z,13.00
2023-03-13T10:16:38.409Z,13.52
2023-03-13T10:19:17.322Z,13.10
2023-03-13T10:21:55.002Z,12.68
2023-03-13T10:24:36.284Z,10.98
2023-03-13T10:27:06.399Z,4.63
2023-03-13T10:29:36.360Z,13.05
2023-03-13T10:32:12.254Z,14.65
2023-03-13T10:34:55.420Z,12.10
2023-03-13T10:37:28.693Z,10.45
2023-03-13T10:40:15.602Z,9.75
2023-03-13T10:42:47.974Z,5.95
2023-03-13T10:45:24.690Z,7.85
2023-03-13T10:48:06.188Z,8.90
2023-03-13T10:50:38.250Z,14.32
2023-03-13T10:53:27.338Z,12.23
2023-03-13T10:55:58.987Z,6.00
2023-03-13T10:58:37.150Z,7.47
2023-03-13T11:01:24.347Z,8.07
2023-03-13T11:04:00.504Z,8.98
2023-03-13T11:06:33.153Z,10.68
2023-03-13T11:09:08.343Z,5.90
2023-03-13T11:11:49.850Z,10.02
2023-03-13T11:14:23.429Z,4.65
2023-03-13T11:16:56.278Z,7.65
2023-03-13T11:19:42.587Z,8.27
2023-03-13T11:22:37.352Z,5.82
2023-03-13T11:25:22.313Z,5.65
2023-03-13T11:30:50.683Z,10.15
2023-03-13T11:33:32.900Z,2.63
2023-03-13T11:36:17.276Z,5.93
2023-03-13T11:38:52.096Z,7.88
2023-03-13T11:41:39.382Z,9.65
2023-03-13T11:44:34.008Z,2.15
2023-03-13T11:47:30.299Z,1.38
2023-03-13T11:50:18.537Z,4.15
2023-03-13T11:53:04.839Z,8.00
2023-03-13T11:56:02.162Z,6.78
2023-03-13T11:58:47.355Z,8.35
2023-03-13T12:04:00.136Z,2.95
2023-03-13T12:06:36.016Z,3.97
2023-03-13T12:09:28.201Z,1.10
2023-03-13T12:12:04.560Z,1.83
2023-03-13T12:14:39.660Z,1.60
2023-03-13T12:17:15.822Z,4.70
2023-03-13T12:19:51.485Z,4.65
2023-03-13T12:22:29.055Z,7.63
2023-03-13T12:25:06.959Z,7.70
2023-03-13T12:27:42.334Z,1.55
2023-03-13T12:30:29.034Z,3.20
2023-03-13T12:33:06.327Z,2.88
2023-03-13T12:35:37.993Z,2.83
2023-03-13T12:38:14.980Z,2.80
2023-03-13T12:40:52.903Z,3.90
2023-03-13T12:43:28.365Z,4.22
2023-03-13T12:46:21.587Z,3.45
2023-03-13T12:49:46.010Z,1.73
2023-03-13T12:52:47.536Z,1.27
2023-03-13T12:55:36.840Z,4.15
2023-03-13T12:58:33.088Z,1.02
2023-03-13T13:01:07.328Z,2.53
2023-03-13T13:03:41.021Z,1.95
2023-03-13T13:06:14.563Z,3.40
2023-03-13T13:08:46.633Z,2.17
2023-03-13T13:11:48.545Z,2.22
2023-03-13T13:15:07.940Z,5.93
2023-03-13T13:17:53.500Z,1.92
2023-03-13T13:20:49.640Z,2.97
2023-03-13T13:23:37.745Z,2.60
2023-03-13T13:26:52.893Z,1.92
2023-03-13T13:29:58.824Z,2.70
2023-03-13T13:32:47.538Z,2.53
2023-03-13T13:35:35.385Z,3.88
2023-03-13T13:38:42.464Z,1.98
2023-03-13T13:41:37.850Z,1.65
2023-03-13T13:47:02.152Z,1.90
2023-03-13T13:49:41.112Z,4.25
2023-03-13T13:52:38.001Z,1.77
2023-03-13T13:55:45.070Z,2.60
2023-03-13T13:58:21.461Z,2.45
2023-03-13T14:00:58.324Z,3.50
2023-03-13T14:03:30.307Z,3.72
2023-03-13T14:06:14.059Z,2.67
2023-03-13T14:08:46.411Z,2.97
2023-03-13T14:11:30.588Z,3.35
2023-03-13T14:14:23.323Z,5.22
2023-03-13T14:16:57.157Z,2.88
2023-03-13T14:19:32.728Z,2.50
2023-03-13T14:22:08.822Z,2.80
2023-03-13T14:24:39.601Z,2.67
2023-03-13T14:27:18.614Z,2.05
2023-03-13T14:30:03.617Z,1.48
2023-03-13T14:32:33.708Z,3.10
2023-03-13T14:35:05.017Z,2.33
2023-03-13T14:37:44.840Z,2.17
2023-03-13T14:40:33.291Z,2.78
2023-03-13T14:43:05.934Z,2.67
2023-03-13T14:45:39.142Z,4.85
2023-03-13T14:48:22.726Z,1.92
2023-03-13T14:51:05.426Z,1.73
2023-03-13T14:53:58.318Z,3.45
2023-03-13T14:56:38.140Z,4.65
2023-03-13T14:59:19.849Z,3.60
2023-03-13T15:01:49.858Z,5.07
2023-03-13T15:04:19.813Z,3.10
2023-03-13T15:06:49.720Z,1.50
2023-03-13T15:09:25.545Z,3.30
2023-03-13T15:11:59.112Z,3.17
2023-03-13T15:14:41.412Z,1.33
2023-03-13T15:17:23.443Z,6.60
2023-03-13T15:19:56.394Z,3.03
2023-03-13T15:22:33.230Z,2.67
2023-03-13T15:25:08.191Z,4.32
2023-03-13T15:27:38.592Z,4.35
2023-03-13T15:30:10.770Z,6.70
2023-03-13T15:32:44.064Z,2.53
2023-03-13T15:35:28.399Z,1.88
2023-03-13T15:37:58.693Z,3.50
2023-03-13T15:40:31.850Z,4.25
2023-03-13T15:43:02.094Z,2.53
2023-03-13T15:45:32.675Z,3.30
2023-03-13T15:48:03.240Z,4.43
2023-03-13T15:50:33.179Z,1.42
2023-03-13T15:53:04.110Z,2.67
2023-03-13T15:55:36.549Z,5.95
2023-03-13T15:58:06.755Z,4.13
2023-03-13T16:00:36.671Z,4.70
2023-03-13T16:03:06.843Z,5.25
2023-03-13T16:05:36.690Z,2.80
2023-03-13T16:08:07.094Z,1.75
2023-03-13T16:10:39.662Z,2.15
2023-03-13T16:13:09.565Z,4.50
2023-03-13T16:15:40.359Z,3.40
2023-03-13T16:18:13.017Z,3.55
2023-03-13T16:20:42.901Z,4.63
2023-03-13T16:23:12.844Z,4.47
2023-03-13T16:25:45.472Z,7.28
2023-03-13T16:28:16.467Z,4.90
2023-03-13T16:30:47.635Z,3.00
2023-03-13T16:33:17.759Z,4.13
2023-03-13T16:35:47.717Z,5.20
2023-03-13T16:38:17.690Z,5.43
2023-03-13T16:40:50.118Z,2.80
2023-03-13T16:43:19.977Z,2.88
2023-03-13T16:45:49.907Z,2.50
2023-03-13T16:48:21.864Z,4.57
2023-03-13T16:50:51.776Z,5.88
2023-03-13T16:53:21.790Z,5.20
2023-03-13T16:55:55.789Z,3.20
2023-03-13T16:58:25.776Z,6.90
2023-03-13T17:03:45.817Z,2.38
2023-03-13T17:06:20.036Z,3.22
2023-03-13T17:08:49.941Z,2.97
2023-03-13T17:11:24.583Z,3.65
2023-03-13T17:13:56.022Z,4.70
2023-03-13T17:16:32.224Z,8.18
2023-03-13T17:19:03.331Z,5.75
2023-03-13T17:21:36.709Z,4.55
2023-03-13T17:24:07.649Z,5.22
2023-03-13T17:26:42.441Z,7.07
2023-03-13T17:29:19.653Z,5.90
2023-03-13T17:31:49.549Z,2.78
2023-03-13T17:34:20.341Z,8.45
2023-03-13T17:36:50.231Z,5.05
2023-03-13T17:39:21.426Z,4.65
2023-03-13T17:41:54.070Z,4.78
2023-03-13T17:44:23.956Z,5.25
2023-03-13T17:46:55.256Z,3.47
2023-03-13T17:49:25.246Z,2.95
2023-03-13T17:51:55.155Z,5.38
2023-03-13T17:54:25.046Z,3.42
2023-03-13T17:56:57.566Z,3.10
2023-03-13T17:59:29.400Z,4.63
2023-03-13T18:02:00.090Z,6.35
2023-03-13T18:04:30.060Z,2.10
2023-03-13T18:06:59.944Z,3.67
2023-03-13T18:09:29.871Z,3.85
2023-03-13T18:12:02.330Z,1.80
2023-03-13T18:14:32.364Z,1.45
2023-03-13T18:17:02.280Z,4.50
2023-03-13T18:19:32.223Z,6.10
2023-03-13T18:22:02.192Z,3.70
2023-03-13T18:24:32.068Z,3.22
2023-03-13T18:27:05.319Z,5.47
2023-03-13T18:29:35.212Z,2.45
2023-03-13T18:32:05.110Z,3.50
2023-03-13T18:34:35.117Z,1.73
2023-03-13T18:37:06.319Z,4.57
2023-03-13T18:39:36.602Z,2.60
2023-03-13T18:42:10.704Z,3.25
2023-03-13T18:44:40.844Z,1.58
2023-03-13T18:47:15.893Z,2.72
2023-03-13T18:49:47.061Z,3.88
2023-03-13T18:52:17.381Z,2.75
2023-03-13T18:54:47.816Z,4.72
2023-03-13T18:57:22.538Z,3.33
2023-03-13T18:59:52.442Z,3.70
2023-03-13T19:02:23.083Z,4.18
2023-03-13T19:04:53.009Z,4.22
2023-03-13T19:07:28.735Z,4.22
2023-03-13T19:09:58.668Z,5.07
2023-03-13T19:12:31.182Z,3.95
2023-03-13T19:15:01.072Z,2.65
2023-03-13T19:17:32.361Z,5.88
2023-03-13T19:20:02.362Z,2.97
2023-03-13T19:22:32.252Z,4.15
2023-03-13T19:25:02.332Z,4.65
2023-03-13T19:27:34.820Z,4.28
2023-03-13T19:30:04.767Z,5.63
2023-03-13T19:32:34.716Z,5.53
2023-03-13T19:35:04.656Z,8.90
2023-03-13T19:37:34.557Z,6.45
2023-03-13T19:40:05.762Z,6.82
2023-03-13T19:42:38.238Z,6.55
2023-03-13T19:45:10.442Z,6.18
2023-03-13T19:47:40.344Z,9.10
2023-03-13T19:50:20.617Z,5.72
2023-03-13T19:52:50.822Z,7.72
2023-03-13T19:55:20.733Z,5.15
2023-03-13T19:57:53.219Z,5.57
2023-03-13T20:00:27.538Z,8.82
2023-03-13T20:02:57.604Z,4.22
2023-03-13T20:05:29.527Z,7.07
2023-03-13T20:07:59.432Z,4.38
2023-03-13T20:10:29.547Z,4.72
2023-03-13T20:13:02.019Z,5.68
2023-03-13T20:15:31.922Z,5.65
2023-03-13T20:18:01.788Z,7.32
2023-03-13T20:20:31.687Z,6.72
2023-03-13T20:23:01.678Z,6.68
2023-03-13T20:25:31.842Z,6.65
2023-03-13T20:28:04.334Z,6.10
2023-03-13T20:30:34.253Z,6.28
2023-03-13T20:33:04.172Z,5.90
2023-03-13T20:35:34.470Z,10.27
2023-03-13T20:38:05.235Z,6.47
2023-03-13T20:40:35.540Z,10.93
2023-03-13T20:43:08.044Z,6.45
2023-03-13T20:45:37.924Z,6.22
2023-03-13T20:48:08.742Z,6.03
2023-03-13T20:50:39.292Z,7.00
2023-03-13T20:53:10.150Z,5.32
2023-03-13T20:55:40.681Z,4.03
2023-03-13T20:58:13.228Z,5.35
2023-03-13T21:00:43.857Z,5.13
2023-03-13T21:03:15.084Z,4.43
2023-03-13T21:05:45.624Z,6.30
2023-03-13T21:08:15.508Z,5.88
2023-03-13T21:10:45.945Z,8.65
2023-03-13T21:13:18.423Z,8.75
2023-03-13T21:15:48.361Z,3.38
2023-03-13T21:18:18.321Z,9.63
2023-03-13T21:20:48.693Z,3.30
2023-03-13T21:23:18.568Z,2.03
2023-03-13T21:25:48.462Z,6.72
2023-03-13T21:28:20.902Z,2.45
2023-03-13T21:30:50.839Z,5.55
2023-03-13T21:33:20.732Z,3.78
2023-03-13T21:35:52.447Z,2.70
2023-03-13T21:38:22.341Z,3.15
2023-03-13T21:40:52.215Z,4.65
2023-03-13T21:43:28.017Z,3.45
2023-03-13T21:45:59.524Z,5.70
2023-03-13T21:48:29.418Z,5.45
2023-03-13T21:50:59.320Z,2.65
2023-03-13T21:53:29.600Z,4.05
2023-03-13T21:55:59.536Z,4.28
2023-03-13T21:58:32.303Z,5.82
2023-03-13T22:01:02.612Z,2.22
2023-03-13T22:03:32.888Z,4.47
2023-03-13T22:06:02.951Z,2.67
2023-03-13T22:08:33.280Z,3.25
2023-03-13T22:11:03.138Z,4.78
2023-03-13T22:13:35.602Z,3.85
2023-03-13T22:16:05.559Z,1.05
2023-03-13T22:18:35.463Z,3.80
2023-03-13T22:21:05.750Z,2.83
2023-03-13T22:23:35.860Z,2.80
2023-03-13T22:26:06.334Z,3.35
2023-03-13T22:28:38.841Z,3.67
2023-03-13T22:31:10.814Z,1.52
2023-03-13T22:33:40.683Z,3.70
2023-03-13T22:36:13.012Z,2.15
2023-03-13T22:38:42.965Z,2.92
2023-03-13T22:41:16.632Z,1.50
2023-03-13T22:43:49.131Z,2.97
2023-03-13T22:46:19.112Z,4.60
2023-03-13T22:48:49.002Z,1.98
2023-03-13T22:51:18.914Z,2.50
2023-03-13T22:53:48.866Z,1.48
2023-03-13T22:56:18.765Z,3.75
2023-03-13T22:58:51.224Z,2.72
2023-03-13T23:01:22.901Z,1.98
2023-03-13T23:03:52.983Z,2.67
2023-03-13T23:06:26.570Z,2.83
2023-03-13T23:08:56.586Z,2.85
2023-03-13T23:11:26.514Z,4.80
2023-03-13T23:13:59.212Z,3.30
2023-03-13T23:16:29.235Z,3.10
2023-03-13T23:18:59.184Z,1.50
2023-03-13T23:21:29.055Z,1.75
2023-03-13T23:23:59.083Z,4.35
2023-03-13T23:26:28.954Z,2.20
2023-03-13T23:29:01.498Z,2.63
2023-03-13T23:31:31.552Z,2.58
2023-03-13T23:34:01.509Z,2.75
2023-03-13T23:36:32.110Z,2.60
2023-03-13T23:39:03.041Z,4.22
2023-03-13T23:41:33.196Z,3.67
2023-03-13T23:44:05.767Z,2.85
2023-03-13T23:46:36.303Z,1.83
2023-03-13T23:49:06.512Z,3.97
2023-03-13T23:51:36.515Z,2.47
2023-03-13T23:54:07.167Z,3.20
2023-03-13T23:56:37.139Z,4.15
2023-03-13T23:59:09.706Z,2.85
